createdAt,value
2019-01-26T00:01:09.226Z,45.70
2019-01-26T00:03:37.479Z,45.80
2019-01-26T00:06:05.753Z,45.90
2019-01-26T00:08:34.641Z,45.90
2019-01-26T00:11:02.887Z,46.00
2019-01-26T00:13:31.120Z,45.90
2019-01-26T00:15:59.368Z,46.00
2019-01-26T00:18:27.606Z,46.00
2019-01-26T00:20:55.861Z,46.00
2019-01-26T00:23:24.088Z,46.10
2019-01-26T00:25:53.017Z,46.10
2019-01-26T00:28:21.240Z,46.10
2019-01-26T00:30:49.509Z,46.20
2019-01-26T00:33:17.743Z,46.30
2019-01-26T00:35:45.985Z,46.30
2019-01-26T00:38:14.240Z,46.20
2019-01-26T00:40:42.503Z,46.30
2019-01-26T00:43:10.728Z,46.40
2019-01-26T00:45:38.977Z,47.00
2019-01-26T00:48:07.209Z,46.40
2019-01-26T00:50:35.449Z,46.40
2019-01-26T00:53:03.681Z,46.40
2019-01-26T00:55:31.929Z,46.50
2019-01-26T00:58:00.193Z,46.50
2019-01-26T01:00:28.446Z,46.50
2019-01-26T01:02:56.699Z,46.60
2019-01-26T01:05:24.945Z,46.60
2019-01-26T01:07:53.276Z,46.70
2019-01-26T01:10:21.515Z,46.80
2019-01-26T01:12:49.767Z,46.70
2019-01-26T01:15:19.837Z,46.70
2019-01-26T01:17:48.779Z,46.80
2019-01-26T01:20:17.027Z,46.80
2019-01-26T01:22:45.293Z,46.90
2019-01-26T01:25:13.793Z,46.90
2019-01-26T01:27:42.030Z,47.00
2019-01-26T01:30:19.209Z,47.00
2019-01-26T01:32:47.452Z,47.00
2019-01-26T01:35:15.681Z,47.00
2019-01-26T01:37:43.928Z,47.10
2019-01-26T01:40:14.309Z,47.10
2019-01-26T01:42:42.581Z,47.10
2019-01-26T01:45:14.197Z,47.10
2019-01-26T01:47:42.471Z,47.10
2019-01-26T01:50:10.740Z,47.10
2019-01-26T01:52:39.022Z,47.10
2019-01-26T01:55:09.445Z,47.10
2019-01-26T01:57:37.693Z,47.10
2019-01-26T02:00:09.202Z,47.20
2019-01-26T02:02:37.514Z,47.10
2019-01-26T02:05:06.807Z,47.10
2019-01-26T02:07:36.680Z,47.20
2019-01-26T02:10:08.052Z,47.20
2019-01-26T02:12:36.301Z,47.20
2019-01-26T02:15:06.733Z,47.50
2019-01-26T02:17:35.041Z,47.20
2019-01-26T02:20:05.718Z,47.20
2019-01-26T02:22:33.989Z,47.30
2019-01-26T02:25:02.237Z,47.30
2019-01-26T02:27:30.476Z,47.30
2019-01-26T02:30:00.387Z,47.40
2019-01-26T02:32:28.682Z,47.40
2019-01-26T02:34:56.913Z,47.40
2019-01-26T02:37:25.165Z,47.40
2019-01-26T02:39:53.394Z,47.40
2019-01-26T02:42:21.638Z,47.40
2019-01-26T02:44:49.918Z,47.70
2019-01-26T02:47:18.149Z,47.40
2019-01-26T02:49:46.391Z,47.40
2019-01-26T02:52:14.629Z,47.40
2019-01-26T02:54:42.860Z,47.40
2019-01-26T02:57:11.113Z,47.40
2019-01-26T02:59:39.341Z,47.60
2019-01-26T03:02:07.570Z,47.50
2019-01-26T03:04:35.810Z,47.50
2019-01-26T03:07:04.214Z,47.60
2019-01-26T03:09:32.471Z,47.50
2019-01-26T03:12:00.699Z,47.00
2019-01-26T03:14:29.013Z,47.60
2019-01-26T03:16:57.266Z,47.50
2019-01-26T03:19:25.533Z,47.60
2019-01-26T03:21:53.776Z,47.60
2019-01-26T03:24:22.017Z,47.60
2019-01-26T03:26:50.261Z,47.70
2019-01-26T03:29:18.820Z,47.60
2019-01-26T03:31:47.059Z,47.60
2019-01-26T03:34:15.309Z,47.60
2019-01-26T03:36:43.546Z,47.60
2019-01-26T03:39:11.819Z,47.60
2019-01-26T03:41:40.070Z,47.70
2019-01-26T03:44:08.364Z,47.70
2019-01-26T03:46:36.597Z,47.70
2019-01-26T03:49:04.837Z,47.70
2019-01-26T03:51:33.747Z,47.60
2019-01-26T03:54:02.001Z,47.70
2019-01-26T03:56:30.234Z,47.70
2019-01-26T03:58:59.248Z,47.70
2019-01-26T04:01:27.483Z,47.70
2019-01-26T04:03:55.742Z,47.70
2019-01-26T04:06:23.978Z,47.70
2019-01-26T04:08:52.873Z,47.70
2019-01-26T04:11:21.118Z,47.70
2019-01-26T04:13:49.353Z,47.70
2019-01-26T04:16:17.599Z,47.80
2019-01-26T04:18:46.407Z,47.80
2019-01-26T04:21:14.660Z,47.80
2019-01-26T04:23:42.930Z,47.90
2019-01-26T04:26:11.214Z,47.90
2019-01-26T04:28:39.446Z,47.90
2019-01-26T04:31:07.685Z,48.00
2019-01-26T04:33:35.914Z,48.00
2019-01-26T04:36:04.153Z,48.00
2019-01-26T04:38:32.381Z,48.00
2019-01-26T04:41:00.809Z,47.90
2019-01-26T04:43:29.053Z,48.10
2019-01-26T04:45:57.317Z,47.90
2019-01-26T04:48:25.528Z,48.00
2019-01-26T04:50:53.773Z,48.00
2019-01-26T04:53:22.008Z,48.00
2019-01-26T04:55:50.253Z,48.00
2019-01-26T04:58:18.497Z,48.20
2019-01-26T05:00:46.748Z,48.20
2019-01-26T05:03:14.978Z,48.20
2019-01-26T05:05:43.225Z,48.10
2019-01-26T05:08:11.456Z,48.20
2019-01-26T05:10:39.705Z,48.20
2019-01-26T05:13:07.929Z,48.20
2019-01-26T05:15:36.157Z,48.10
2019-01-26T05:18:04.409Z,48.10
2019-01-26T05:20:32.945Z,48.20
2019-01-26T05:23:01.198Z,48.00
2019-01-26T05:25:29.425Z,48.10
2019-01-26T05:27:57.673Z,48.20
2019-01-26T05:30:27.158Z,48.00
2019-01-26T05:32:55.399Z,48.10
2019-01-26T05:35:23.638Z,48.10
2019-01-26T05:37:51.881Z,48.20
2019-01-26T05:40:20.378Z,48.20
2019-01-26T05:42:48.620Z,48.20
2019-01-26T05:45:18.990Z,48.20
2019-01-26T05:47:48.588Z,48.20
2019-01-26T05:50:19.796Z,48.20
2019-01-26T05:52:48.120Z,48.20
2019-01-26T05:55:16.347Z,48.20
2019-01-26T05:57:44.596Z,48.20
2019-01-26T06:00:16.556Z,48.20
2019-01-26T06:02:44.805Z,48.20
2019-01-26T06:05:13.042Z,48.30
2019-01-26T06:07:41.285Z,48.20
2019-01-26T06:10:09.522Z,48.30
2019-01-26T06:12:38.437Z,48.40
2019-01-26T06:15:09.616Z,48.40
2019-01-26T06:17:37.858Z,48.40
2019-01-26T06:20:09.439Z,48.40
2019-01-26T06:22:37.722Z,48.50
2019-01-26T06:25:08.956Z,48.40
2019-01-26T06:27:37.223Z,48.50
2019-01-26T06:30:08.718Z,48.40
2019-01-26T06:32:36.960Z,48.40
2019-01-26T06:35:06.439Z,48.50
2019-01-26T06:37:35.344Z,48.50
2019-01-26T06:40:05.622Z,48.50
2019-01-26T06:42:33.854Z,48.50
2019-01-26T06:45:02.110Z,48.40
2019-01-26T06:47:30.333Z,49.20
2019-01-26T06:49:58.576Z,48.50
2019-01-26T06:52:26.812Z,48.50
2019-01-26T06:54:55.057Z,48.50
2019-01-26T06:57:23.285Z,48.50
2019-01-26T06:59:51.537Z,48.50
2019-01-26T07:02:19.773Z,48.40
2019-01-26T07:04:49.655Z,48.50
2019-01-26T07:07:17.897Z,48.50
2019-01-26T07:09:46.181Z,48.50
2019-01-26T07:12:14.465Z,48.50
2019-01-26T07:14:42.706Z,48.50
2019-01-26T07:17:10.949Z,48.50
2019-01-26T07:19:39.193Z,48.50
2019-01-26T07:22:07.434Z,49.20
2019-01-26T07:24:35.684Z,48.50
2019-01-26T07:27:03.910Z,48.50
2019-01-26T07:29:32.836Z,48.60
2019-01-26T07:32:01.062Z,48.60
2019-01-26T07:34:29.306Z,48.70
2019-01-26T07:36:57.541Z,48.70
2019-01-26T07:39:25.858Z,48.60
2019-01-26T07:41:54.104Z,48.70
2019-01-26T07:44:22.338Z,48.60
2019-01-26T07:46:50.878Z,48.70
2019-01-26T07:49:19.122Z,48.70
2019-01-26T07:51:47.350Z,48.70
2019-01-26T07:54:15.593Z,48.70
2019-01-26T07:56:43.830Z,48.60
2019-01-26T07:59:12.629Z,48.70
2019-01-26T08:01:40.877Z,48.70
2019-01-26T08:04:09.105Z,48.70
2019-01-26T08:06:38.984Z,48.70
2019-01-26T08:09:07.685Z,48.90
2019-01-26T08:11:36.073Z,49.10
2019-01-26T08:14:05.216Z,49.60
2019-01-26T08:16:33.457Z,49.80
2019-01-26T08:19:01.693Z,53.50
2019-01-26T08:21:30.514Z,52.70
2019-01-26T08:23:58.752Z,53.50
2019-01-26T08:26:27.009Z,53.60
2019-01-26T08:28:55.250Z,51.90
2019-01-26T08:31:23.490Z,51.20
2019-01-26T08:33:51.730Z,50.70
2019-01-26T08:36:19.981Z,50.40
2019-01-26T08:38:48.218Z,50.00
2019-01-26T08:41:16.470Z,49.90
2019-01-26T08:43:44.713Z,50.00
2019-01-26T08:46:12.953Z,49.70
2019-01-26T08:48:41.193Z,49.50
2019-01-26T08:51:09.454Z,49.40
2019-01-26T08:53:38.262Z,49.20
2019-01-26T08:56:06.510Z,48.90
2019-01-26T08:58:34.742Z,48.80
2019-01-26T09:01:02.985Z,48.60
2019-01-26T09:03:44.829Z,48.60
2019-01-26T09:06:14.713Z,48.50
2019-01-26T09:08:42.948Z,48.50
2019-01-26T09:11:11.203Z,48.50
2019-01-26T09:13:39.432Z,49.20
2019-01-26T09:16:07.700Z,49.40
2019-01-26T09:18:38.955Z,48.90
2019-01-26T09:21:05.885Z,48.70
2019-01-26T09:23:34.130Z,48.60
2019-01-26T09:26:02.364Z,48.60
2019-01-26T09:28:30.669Z,48.50
2019-01-26T09:30:58.901Z,48.50
2019-01-26T09:33:27.150Z,48.40
2019-01-26T09:35:55.385Z,48.40
2019-01-26T09:38:23.631Z,48.30
2019-01-26T09:40:51.861Z,48.30
2019-01-26T09:43:20.105Z,48.50
2019-01-26T09:45:48.336Z,48.40
2019-01-26T09:48:16.582Z,48.40
2019-01-26T09:50:44.818Z,48.50
2019-01-26T09:53:13.118Z,48.50
2019-01-26T09:55:41.357Z,48.40
2019-01-26T09:58:09.602Z,48.40
2019-01-26T10:00:37.842Z,48.40
2019-01-26T10:03:06.377Z,48.50
2019-01-26T10:05:34.618Z,48.30
2019-01-26T10:08:02.853Z,48.30
2019-01-26T10:10:31.422Z,48.00
2019-01-26T10:12:59.657Z,48.10
2019-01-26T10:15:30.109Z,48.00
2019-01-26T10:17:58.354Z,47.90
2019-01-26T10:20:29.605Z,48.00
2019-01-26T10:22:57.837Z,47.80
2019-01-26T10:25:26.077Z,47.80
2019-01-26T10:27:54.320Z,47.80
2019-01-26T10:30:29.866Z,47.90
2019-01-26T10:32:58.105Z,47.80
2019-01-26T10:35:27.985Z,47.70
2019-01-26T10:37:56.789Z,47.70
2019-01-26T10:40:26.673Z,47.80
2019-01-26T10:42:54.912Z,47.70
2019-01-26T10:45:23.149Z,48.20
2019-01-26T10:47:51.385Z,47.70
2019-01-26T10:50:19.629Z,47.60
2019-01-26T10:52:47.868Z,47.60
2019-01-26T10:55:17.733Z,47.60
2019-01-26T10:57:45.968Z,47.70
2019-01-26T11:00:17.181Z,47.60
2019-01-26T11:02:45.418Z,47.70
2019-01-26T11:05:13.661Z,47.70
2019-01-26T11:07:41.893Z,47.70
2019-01-26T11:10:13.082Z,47.70
2019-01-26T11:12:41.312Z,47.70
2019-01-26T11:15:11.654Z,47.70
2019-01-26T11:17:39.893Z,47.70
2019-01-26T11:20:15.805Z,47.70
2019-01-26T11:22:44.034Z,47.60
2019-01-26T11:25:13.025Z,47.60
2019-01-26T11:27:41.545Z,47.60
2019-01-26T11:30:12.178Z,47.70
2019-01-26T11:32:40.411Z,47.80
2019-01-26T11:35:14.127Z,50.60
2019-01-26T11:37:42.371Z,49.70
2019-01-26T11:40:12.809Z,49.60
2019-01-26T11:42:41.033Z,49.00
2019-01-26T11:45:19.745Z,48.80
2019-01-26T11:47:47.983Z,48.90
2019-01-26T11:50:24.078Z,49.10
2019-01-26T11:52:52.318Z,49.20
2019-01-26T11:55:24.900Z,49.40
2019-01-26T11:57:54.709Z,49.40
2019-01-26T12:00:40.952Z,49.50
2019-01-26T12:03:10.830Z,48.80
2019-01-26T12:05:43.934Z,49.60
2019-01-26T12:08:12.167Z,49.90
2019-01-26T12:10:40.414Z,50.10
2019-01-26T12:13:08.648Z,50.30
2019-01-26T12:15:36.885Z,50.10
2019-01-26T12:18:05.130Z,50.40
2019-01-26T12:20:33.365Z,50.40
2019-01-26T12:23:02.181Z,50.20
2019-01-26T12:25:30.421Z,50.50
2019-01-26T12:27:58.668Z,50.20
2019-01-26T12:30:26.898Z,50.10
2019-01-26T12:32:55.142Z,50.20
2019-01-26T12:35:23.373Z,50.30
2019-01-26T12:37:51.618Z,50.40
2019-01-26T12:40:20.424Z,50.50
2019-01-26T12:42:48.672Z,50.60
2019-01-26T12:45:19.245Z,50.50
2019-01-26T12:47:47.494Z,50.70
2019-01-26T12:50:15.725Z,50.60
2019-01-26T12:52:43.964Z,50.80
2019-01-26T12:55:17.284Z,51.00
2019-01-26T12:57:45.801Z,51.10
2019-01-26T13:00:25.428Z,51.70
2019-01-26T13:02:53.663Z,51.20
2019-01-26T13:05:22.174Z,51.20
2019-01-26T13:07:50.409Z,51.20
2019-01-26T13:10:30.806Z,51.30
2019-01-26T13:12:59.052Z,51.30
2019-01-26T13:15:27.301Z,51.20
2019-01-26T13:17:55.866Z,51.40
2019-01-26T13:20:24.101Z,51.30
2019-01-26T13:22:52.342Z,51.20
2019-01-26T13:25:21.183Z,51.40
2019-01-26T13:27:49.410Z,51.40
2019-01-26T13:30:20.445Z,51.40
2019-01-26T13:32:48.684Z,51.40
2019-01-26T13:35:16.922Z,51.40
2019-01-26T13:37:45.169Z,51.40
2019-01-26T13:40:16.363Z,51.50
2019-01-26T13:42:44.609Z,51.30
2019-01-26T13:45:14.781Z,51.80
2019-01-26T13:47:43.021Z,51.20
2019-01-26T13:50:12.205Z,51.20
2019-01-26T13:52:40.438Z,51.40
2019-01-26T13:55:17.165Z,51.50
2019-01-26T13:57:45.398Z,51.40
2019-01-26T14:00:20.322Z,51.30
2019-01-26T14:02:49.125Z,51.30
2019-01-26T14:05:17.646Z,51.30
2019-01-26T14:07:45.881Z,51.30
2019-01-26T14:10:20.412Z,51.40
2019-01-26T14:12:48.762Z,51.30
2019-01-26T14:15:18.452Z,51.20
2019-01-26T14:17:46.691Z,51.20
2019-01-26T14:20:19.821Z,51.20
2019-01-26T14:22:48.061Z,51.10
2019-01-26T14:25:17.346Z,51.10
2019-01-26T14:27:45.741Z,51.10
2019-01-26T14:30:32.020Z,51.10
2019-01-26T14:33:00.249Z,51.10
2019-01-26T14:35:28.501Z,51.00
2019-01-26T14:37:56.749Z,51.10
2019-01-26T14:40:25.093Z,51.20
2019-01-26T14:42:54.510Z,51.20
2019-01-26T14:45:23.052Z,51.30
2019-01-26T14:47:51.285Z,51.30
2019-01-26T14:50:19.813Z,51.30
2019-01-26T14:52:48.609Z,51.20
2019-01-26T14:55:28.641Z,51.30
2019-01-26T14:57:57.437Z,51.20
2019-01-26T15:00:38.509Z,51.30
2019-01-26T15:03:06.737Z,51.40
2019-01-26T15:05:34.985Z,51.30
2019-01-26T15:08:03.224Z,50.90
2019-01-26T15:10:31.470Z,50.70
2019-01-26T15:12:59.701Z,50.70
2019-01-26T15:15:27.949Z,51.40
2019-01-26T15:17:56.177Z,51.00
2019-01-26T15:20:30.198Z,51.10
2019-01-26T15:22:58.429Z,51.20
2019-01-26T15:25:26.678Z,51.20
2019-01-26T15:27:54.917Z,51.30
2019-01-26T15:30:37.833Z,51.30
2019-01-26T15:33:06.410Z,51.40
2019-01-26T15:35:34.649Z,51.40
2019-01-26T15:38:02.882Z,52.00
2019-01-26T15:40:31.693Z,51.50
2019-01-26T15:42:59.930Z,51.50
2019-01-26T15:45:31.514Z,51.50
2019-01-26T15:47:59.752Z,51.50
2019-01-26T15:50:27.993Z,51.50
2019-01-26T15:52:56.229Z,51.60
2019-01-26T15:55:25.914Z,51.60
2019-01-26T15:57:54.145Z,51.70
2019-01-26T16:00:33.544Z,51.60
2019-01-26T16:03:01.778Z,51.70
2019-01-26T16:05:30.021Z,51.70
2019-01-26T16:07:58.267Z,51.60
2019-01-26T16:10:26.516Z,51.60
2019-01-26T16:12:54.746Z,51.60
2019-01-26T16:15:28.608Z,51.60
2019-01-26T16:17:56.910Z,51.50
2019-01-26T16:20:25.157Z,51.50
2019-01-26T16:22:53.389Z,51.50
2019-01-26T16:25:21.639Z,51.50
2019-01-26T16:27:49.904Z,51.50
2019-01-26T16:30:20.997Z,51.50
2019-01-26T16:32:49.229Z,51.50
2019-01-26T16:35:18.221Z,51.50
2019-01-26T16:37:46.466Z,51.50
2019-01-26T16:40:29.481Z,51.60
2019-01-26T16:42:57.718Z,51.60
2019-01-26T16:45:31.602Z,51.60
2019-01-26T16:47:59.839Z,51.70
2019-01-26T16:50:29.926Z,51.70
2019-01-26T16:52:58.157Z,51.70
2019-01-26T16:55:26.394Z,51.70
2019-01-26T16:57:54.636Z,51.70
2019-01-26T17:00:28.925Z,51.70
2019-01-26T17:02:57.169Z,51.60
2019-01-26T17:05:25.913Z,51.60
2019-01-26T17:07:54.318Z,51.60
2019-01-26T17:10:22.554Z,51.60
2019-01-26T17:12:50.797Z,51.50
2019-01-26T17:15:19.024Z,51.50
2019-01-26T17:17:47.270Z,51.50
2019-01-26T17:20:24.177Z,51.50
2019-01-26T17:22:52.417Z,51.50
2019-01-26T17:25:20.652Z,51.50
2019-01-26T17:27:48.965Z,51.50
2019-01-26T17:30:22.649Z,51.50
2019-01-26T17:32:50.895Z,51.50
2019-01-26T17:35:19.125Z,51.50
2019-01-26T17:37:47.374Z,51.50
2019-01-26T17:40:18.313Z,51.50
2019-01-26T17:42:46.554Z,51.50
2019-01-26T17:45:16.322Z,51.50
2019-01-26T17:47:45.200Z,51.50
2019-01-26T17:50:24.831Z,51.50
2019-01-26T17:52:53.076Z,51.50
2019-01-26T17:55:21.314Z,51.50
2019-01-26T17:57:49.628Z,51.50
2019-01-26T18:00:27.979Z,51.50
2019-01-26T18:02:56.221Z,51.40
2019-01-26T18:05:24.453Z,51.40
2019-01-26T18:07:52.704Z,51.50
2019-01-26T18:10:25.130Z,51.60
2019-01-26T18:12:53.377Z,52.60
2019-01-26T18:15:21.614Z,52.60
2019-01-26T18:17:49.861Z,52.80
2019-01-26T18:20:23.096Z,53.00
2019-01-26T18:22:51.350Z,55.30
2019-01-26T18:25:19.585Z,55.00
2019-01-26T18:27:47.837Z,55.20
2019-01-26T18:30:22.142Z,60.70
2019-01-26T18:32:50.391Z,56.30
2019-01-26T18:35:18.627Z,55.00
2019-01-26T18:37:46.874Z,54.60
2019-01-26T18:40:18.109Z,54.90
2019-01-26T18:42:47.056Z,56.10
2019-01-26T18:45:17.825Z,56.60
2019-01-26T18:47:46.946Z,55.50
2019-01-26T18:50:20.801Z,54.70
2019-01-26T18:52:49.118Z,54.40
2019-01-26T18:55:17.377Z,54.60
2019-01-26T18:57:45.885Z,54.40
2019-01-26T19:00:19.797Z,54.20
2019-01-26T19:02:50.871Z,54.20
2019-01-26T19:05:21.649Z,54.10
2019-01-26T19:07:49.923Z,53.90
2019-01-26T19:10:18.161Z,53.80
2019-01-26T19:12:46.397Z,53.70
2019-01-26T19:15:20.102Z,53.80
2019-01-26T19:17:48.355Z,53.70
2019-01-26T19:20:17.260Z,53.60
2019-01-26T19:22:45.490Z,53.60
2019-01-26T19:25:16.169Z,53.50
2019-01-26T19:27:44.470Z,53.50
2019-01-26T19:30:15.261Z,53.50
2019-01-26T19:32:43.510Z,52.90
2019-01-26T19:35:11.817Z,53.40
2019-01-26T19:37:40.065Z,53.40
2019-01-26T19:40:11.706Z,53.30
2019-01-26T19:42:39.937Z,53.30
2019-01-26T19:45:11.221Z,53.40
2019-01-26T19:47:40.025Z,53.40
2019-01-26T19:50:11.606Z,53.50
2019-01-26T19:52:39.853Z,53.40
2019-01-26T19:55:08.092Z,54.00
2019-01-26T19:57:36.325Z,53.30
2019-01-26T20:00:07.269Z,53.20
2019-01-26T20:02:35.497Z,53.10
2019-01-26T20:05:05.936Z,53.00
2019-01-26T20:07:34.178Z,53.00
2019-01-26T20:10:03.292Z,53.10
2019-01-26T20:12:31.521Z,53.00
2019-01-26T20:14:59.769Z,53.10
2019-01-26T20:17:28.001Z,53.00
2019-01-26T20:19:56.253Z,53.00
2019-01-26T20:22:24.482Z,53.00
2019-01-26T20:24:52.721Z,52.90
2019-01-26T20:27:20.961Z,52.90
2019-01-26T20:29:49.200Z,53.00
2019-01-26T20:32:17.442Z,53.00
2019-01-26T20:34:45.673Z,53.00
2019-01-26T20:37:13.926Z,52.90
2019-01-26T20:39:42.157Z,52.90
2019-01-26T20:42:10.400Z,52.90
2019-01-26T20:44:38.633Z,53.50
2019-01-26T20:47:06.877Z,52.80
2019-01-26T20:49:35.112Z,52.90
2019-01-26T20:52:03.357Z,52.80
2019-01-26T20:54:31.596Z,52.80
2019-01-26T20:57:00.127Z,52.80
2019-01-26T20:59:28.357Z,52.80
2019-01-26T21:01:56.601Z,52.80
2019-01-26T21:04:24.841Z,52.80
2019-01-26T21:06:53.083Z,52.70
2019-01-26T21:09:21.365Z,52.80
2019-01-26T21:11:49.636Z,52.70
2019-01-26T21:14:17.867Z,52.70
2019-01-26T21:16:46.115Z,52.70
2019-01-26T21:19:14.425Z,52.70
2019-01-26T21:21:43.342Z,52.70
2019-01-26T21:24:11.570Z,52.60
2019-01-26T21:26:39.829Z,52.50
2019-01-26T21:29:08.065Z,52.50
2019-01-26T21:31:36.305Z,52.60
2019-01-26T21:34:04.551Z,52.50
2019-01-26T21:36:32.794Z,52.50
2019-01-26T21:39:01.030Z,52.60
2019-01-26T21:41:29.274Z,52.50
2019-01-26T21:43:57.506Z,52.50
2019-01-26T21:46:25.756Z,52.60
2019-01-26T21:48:53.999Z,52.50
2019-01-26T21:51:22.240Z,52.50
2019-01-26T21:53:50.478Z,52.60
2019-01-26T21:56:18.725Z,52.50
2019-01-26T21:58:46.953Z,52.50
2019-01-26T22:01:15.185Z,52.60
2019-01-26T22:03:43.501Z,52.50
2019-01-26T22:06:11.728Z,52.60
2019-01-26T22:08:39.974Z,52.60
2019-01-26T22:11:08.208Z,52.70
2019-01-26T22:13:36.445Z,52.50
2019-01-26T22:16:04.682Z,52.20
2019-01-26T22:19:03.843Z,46.00
2019-01-26T22:21:03.587Z,43.00
2019-01-26T22:23:32.295Z,44.10
2019-01-26T22:26:00.525Z,44.70
2019-01-26T22:28:28.774Z,45.20
2019-01-26T22:30:57.014Z,45.30
2019-01-26T22:33:25.259Z,46.10
2019-01-26T22:35:53.489Z,46.50
2019-01-26T22:38:22.069Z,46.90
2019-01-26T22:40:50.304Z,47.10
2019-01-26T22:43:18.542Z,47.30
2019-01-26T22:45:46.793Z,47.50
2019-01-26T22:48:15.044Z,47.60
2019-01-26T22:50:43.273Z,47.80
2019-01-26T22:53:11.533Z,48.70
2019-01-26T22:55:40.004Z,48.00
2019-01-26T22:58:08.320Z,48.10
2019-01-26T23:00:52.425Z,48.20
2019-01-26T23:03:26.782Z,48.30
2019-01-26T23:06:13.134Z,48.40
2019-01-26T23:08:41.377Z,48.50
2019-01-26T23:11:12.982Z,48.70
2019-01-26T23:13:44.370Z,48.70
2019-01-26T23:16:18.640Z,49.40
2019-01-26T23:19:10.596Z,48.90
2019-01-26T23:21:57.004Z,49.00
2019-01-26T23:24:31.402Z,49.20
2019-01-26T23:27:02.940Z,49.30
2019-01-26T23:29:37.340Z,49.40
2019-01-26T23:32:05.606Z,49.50
2019-01-26T23:34:34.525Z,49.60
2019-01-26T23:37:02.762Z,49.70
2019-01-26T23:39:31.271Z,49.70
2019-01-26T23:41:59.498Z,49.80
2019-01-26T23:44:27.744Z,49.70
2019-01-26T23:46:55.982Z,49.70
2019-01-26T23:49:24.213Z,49.70
2019-01-26T23:51:52.625Z,49.90
2019-01-26T23:54:21.530Z,49.80
2019-01-26T23:56:49.777Z,49.90
2019-01-26T23:59:18.009Z,49.80
